Time;durP1;ratioP1;P1;durP2;ratioP2;P2;SDS_P1;SDS_P2;PMS_P1;PMS_P2;Temp;Humidity;BMP_temperature;BMP_pressure;BME280_temperature;BME280_humidity;BME280_pressure;Samples;Min_cycle;Max_cycle;Signal;HPM_P1;HPM_P2
2022/11/29 00:00:59;;;;;;;22.90;16.67;;;4.90;99.90;;;;;;4911908;29;20204;-71
2022/11/29 00:03:26;;;;;;;22.70;17.67;;;4.90;99.90;;;;;;4911324;29;20794;-72
2022/11/29 00:05:54;;;;;;;23.83;17.47;;;4.90;99.90;;;;;;4911787;29;20209;-70
2022/11/29 00:08:22;;;;;;;25.40;17.27;;;4.90;99.90;;;;;;4910393;29;21091;-71
2022/11/29 00:10:50;;;;;;;23.73;17.37;;;4.90;99.90;;;;;;4911745;29;20208;-71
2022/11/29 00:13:17;;;;;;;25.33;17.83;;;4.90;99.90;;;;;;4911896;29;20696;-74
2022/11/29 00:15:44;;;;;;;22.93;17.33;;;4.90;99.90;;;;;;4911342;29;20686;-75
2022/11/29 00:18:11;;;;;;;23.97;17.17;;;4.90;99.90;;;;;;4912187;29;20260;-75
2022/11/29 00:20:39;;;;;;;25.70;17.30;;;4.90;99.90;;;;;;4911895;29;20291;-76
2022/11/29 00:23:06;;;;;;;23.30;17.20;;;4.90;99.90;;;;;;4912058;29;20212;-76
2022/11/29 00:25:33;;;;;;;23.90;17.70;;;4.90;99.90;;;;;;4911400;29;20802;-76
2022/11/29 00:28:01;;;;;;;23.33;16.90;;;4.90;99.90;;;;;;4911744;29;20745;-76
2022/11/29 00:30:28;;;;;;;23.93;17.33;;;4.90;99.90;;;;;;4911929;29;20637;-72
2022/11/29 00:32:55;;;;;;;24.43;17.80;;;4.90;99.90;;;;;;4911354;29;20291;-71
2022/11/29 00:35:22;;;;;;;24.47;17.50;;;4.90;99.90;;;;;;4909432;29;20248;-72
2022/11/29 00:37:48;;;;;;;23.63;17.30;;;4.90;99.90;;;;;;4911681;29;20300;-72
2022/11/29 00:40:15;;;;;;;25.00;17.57;;;4.90;99.90;;;;;;4911096;29;20228;-70
2022/11/29 00:42:42;;;;;;;21.77;16.77;;;4.90;99.90;;;;;;4911369;29;20243;-70
2022/11/29 00:45:11;;;;;;;22.50;16.87;;;4.90;99.90;;;;;;4911556;29;20236;-71
2022/11/29 00:47:38;;;;;;;22.87;17.33;;;4.90;99.90;;;;;;4911148;29;20292;-70
2022/11/29 00:50:06;;;;;;;23.40;18.10;;;4.90;99.90;;;;;;4911583;29;20303;-70
2022/11/29 00:52:33;;;;;;;22.33;17.40;;;4.80;99.90;;;;;;4911055;29;20338;-71
2022/11/29 00:55:00;;;;;;;22.93;17.40;;;4.90;99.90;;;;;;4911026;29;20271;-72
2022/11/29 00:57:27;;;;;;;23.50;16.60;;;4.90;99.90;;;;;;4911773;29;20291;-72
2022/11/29 00:59:54;;;;;;;22.27;17.67;;;4.80;99.90;;;;;;4910938;29;21009;-72
2022/11/29 01:02:22;;;;;;;24.77;17.73;;;4.90;99.90;;;;;;4911522;29;20299;-72
2022/11/29 01:04:49;;;;;;;23.93;16.77;;;4.80;99.90;;;;;;4911208;29;20327;-73
2022/11/29 01:07:18;;;;;;;22.87;16.93;;;4.90;99.90;;;;;;4911276;29;20778;-70
2022/11/29 01:09:45;;;;;;;22.93;17.83;;;4.90;99.90;;;;;;4892138;29;20292;-70
2022/11/29 01:12:12;;;;;;;22.70;17.77;;;4.90;99.90;;;;;;4911327;29;20303;-70
2022/11/29 01:14:39;;;;;;;22.13;16.73;;;4.90;99.90;;;;;;4911328;29;20212;-70
2022/11/29 01:17:05;;;;;;;23.77;18.27;;;4.90;99.90;;;;;;4911483;29;20300;-70
2022/11/29 01:19:34;;;;;;;24.43;17.87;;;4.90;99.90;;;;;;4911572;29;20300;-70
2022/11/29 01:22:00;;;;;;;24.40;18.43;;;4.90;99.90;;;;;;4911212;29;20252;-72
2022/11/29 01:24:28;;;;;;;23.77;17.93;;;4.90;99.90;;;;;;4910832;29;20236;-73
2022/11/29 01:26:55;;;;;;;25.17;18.27;;;4.90;99.90;;;;;;4911378;29;20576;-72
2022/11/29 01:29:22;;;;;;;26.70;17.70;;;4.90;99.90;;;;;;4914632;29;20208;-72
2022/11/29 01:31:49;;;;;;;27.13;18.47;;;4.90;99.90;;;;;;4914660;29;20213;-72
2022/11/29 01:34:15;;;;;;;22.10;18.03;;;4.90;99.90;;;;;;4914944;29;20303;-72
2022/11/29 01:36:44;;;;;;;24.70;18.33;;;4.90;99.90;;;;;;4914726;29;20211;-72
2022/11/29 01:39:11;;;;;;;25.50;18.13;;;4.80;99.90;;;;;;4914809;29;20307;-72
2022/11/29 01:41:38;;;;;;;25.40;18.30;;;4.90;99.90;;;;;;4914353;29;20944;-73
2022/11/29 01:44:07;;;;;;;24.30;17.90;;;4.90;99.90;;;;;;4914296;29;20324;-73
2022/11/29 01:46:36;;;;;;;23.33;17.93;;;4.90;99.90;;;;;;4914645;29;20304;-72
2022/11/29 01:49:08;;;;;;;22.57;17.50;;;4.90;99.90;;;;;;4914566;29;20308;-73
2022/11/29 01:51:37;;;;;;;23.37;17.57;;;4.90;99.90;;;;;;4914725;29;20284;-72
2022/11/29 01:54:06;;;;;;;24.20;17.30;;;4.90;99.90;;;;;;4914383;29;20397;-72
2022/11/29 01:56:34;;;;;;;21.47;16.80;;;4.90;99.90;;;;;;4914634;29;20236;-72
2022/11/29 01:59:03;;;;;;;24.90;17.77;;;4.90;99.90;;;;;;4914443;29;20227;-72
2022/11/29 02:01:30;;;;;;;25.80;17.90;;;4.90;99.90;;;;;;4914476;29;20296;-72
2022/11/29 02:03:56;;;;;;;21.10;16.13;;;4.90;99.90;;;;;;4913728;29;20248;-72
2022/11/29 02:06:24;;;;;;;22.20;16.90;;;4.90;99.90;;;;;;4914103;29;20815;-72
2022/11/29 02:08:51;;;;;;;24.13;16.73;;;4.90;99.90;;;;;;4913946;29;20213;-72
2022/11/29 02:11:46;;;;;;;23.80;17.30;;;4.90;99.90;;;;;;4914084;29;20743;-72
2022/11/29 02:14:32;;;;;;;24.23;17.13;;;4.90;99.90;;;;;;4920193;29;20218;-72
2022/11/29 02:17:08;;;;;;;22.83;16.37;;;4.90;99.90;;;;;;4920973;29;20295;-72
2022/11/29 02:19:56;;;;;;;21.93;16.30;;;4.90;99.90;;;;;;4914259;29;20304;-72
2022/11/29 02:22:28;;;;;;;23.80;17.47;;;4.90;99.90;;;;;;4912247;29;20223;-73
2022/11/29 02:25:41;;;;;;;22.50;16.93;;;4.90;99.90;;;;;;4913206;29;20238;-72
2022/11/29 02:28:45;;;;;;;21.80;16.43;;;4.90;99.90;;;;;;4854324;29;20370;-73
2022/11/29 02:31:53;;;;;;;23.60;17.20;;;4.90;99.90;;;;;;4836079;29;20207;-73
2022/11/29 02:34:37;;;;;;;22.67;16.57;;;4.90;99.90;;;;;;4892964;29;20221;-73
2022/11/29 02:37:35;;;;;;;24.13;17.00;;;4.90;99.90;;;;;;4895053;29;20206;-72
2022/11/29 02:40:24;;;;;;;22.93;16.50;;;4.90;99.90;;;;;;4895530;29;20323;-71
2022/11/29 02:43:18;;;;;;;22.63;17.10;;;4.90;99.90;;;;;;4911116;29;20319;-72
2022/11/29 02:45:52;;;;;;;23.60;18.10;;;4.90;99.90;;;;;;4913350;29;20311;-70
2022/11/29 02:48:36;;;;;;;25.00;17.13;;;4.90;99.90;;;;;;4913123;29;20918;-70
2022/11/29 02:51:09;;;;;;;23.30;16.80;;;4.90;99.90;;;;;;4913230;29;20200;-70
2022/11/29 02:53:44;;;;;;;22.40;16.67;;;4.90;99.90;;;;;;4894843;29;20285;-70
2022/11/29 02:56:15;;;;;;;23.83;16.60;;;4.90;99.90;;;;;;4912400;29;20298;-70
2022/11/29 02:58:49;;;;;;;21.97;17.20;;;4.90;99.90;;;;;;4912966;29;20293;-70
2022/11/29 03:01:21;;;;;;;23.27;17.47;;;4.90;99.90;;;;;;4913558;29;20245;-70
2022/11/29 03:03:54;;;;;;;21.50;17.20;;;4.90;99.90;;;;;;4912691;29;20280;-70
2022/11/29 03:06:30;;;;;;;23.47;16.83;;;4.90;99.90;;;;;;4912994;29;20284;-71
2022/11/29 03:09:06;;;;;;;21.60;16.30;;;4.90;99.90;;;;;;4912473;29;20247;-72
2022/11/29 03:11:41;;;;;;;24.83;17.47;;;4.90;99.90;;;;;;4913352;29;20785;-72
2022/11/29 03:14:16;;;;;;;24.00;17.47;;;4.90;99.90;;;;;;4913274;29;20303;-72
2022/11/29 03:16:51;;;;;;;22.17;15.97;;;4.90;99.90;;;;;;4912740;29;20205;-71
2022/11/29 03:19:52;;;;;;;24.83;17.53;;;4.90;99.90;;;;;;4894359;29;20204;-71
2022/11/29 03:22:29;;;;;;;21.43;17.17;;;4.90;99.90;;;;;;4891427;29;20691;-72
2022/11/29 03:25:02;;;;;;;22.60;16.80;;;4.90;99.90;;;;;;4912336;29;20304;-72
2022/11/29 03:27:36;;;;;;;23.87;17.33;;;4.90;99.90;;;;;;4912522;29;20751;-71
2022/11/29 03:30:06;;;;;;;23.83;17.57;;;4.90;99.90;;;;;;4900879;29;20228;-72
2022/11/29 03:32:43;;;;;;;21.57;16.00;;;4.90;99.90;;;;;;4913020;29;20268;-71
2022/11/29 03:35:15;;;;;;;26.70;17.27;;;4.90;99.90;;;;;;4912761;29;20201;-71
2022/11/29 03:37:51;;;;;;;22.50;17.17;;;4.90;99.90;;;;;;4910699;29;20209;-71
2022/11/29 03:40:24;;;;;;;24.33;18.60;;;4.90;99.90;;;;;;4910554;29;20735;-71
2022/11/29 03:42:56;;;;;;;24.83;17.57;;;4.90;99.90;;;;;;4911080;29;20312;-71
2022/11/29 03:45:29;;;;;;;25.07;18.13;;;4.90;99.90;;;;;;4910618;29;20235;-71
2022/11/29 03:48:03;;;;;;;21.37;16.63;;;4.90;99.90;;;;;;4910704;29;20305;-71
2022/11/29 03:50:36;;;;;;;23.33;17.03;;;4.90;99.90;;;;;;4909208;29;20205;-71
2022/11/29 03:53:14;;;;;;;22.00;17.67;;;4.90;99.90;;;;;;4910721;29;20304;-70
2022/11/29 03:55:52;;;;;;;22.50;17.53;;;4.80;99.90;;;;;;4910116;29;20251;-71
2022/11/29 03:58:40;;;;;;;21.87;16.87;;;4.80;99.90;;;;;;4910469;29;20284;-71
2022/11/29 04:01:39;;;;;;;24.13;17.73;;;4.80;99.90;;;;;;4910898;29;20240;-71
2022/11/29 04:04:24;;;;;;;24.80;18.50;;;4.80;99.90;;;;;;4909427;29;20299;-71
2022/11/29 04:07:04;;;;;;;22.60;18.20;;;4.80;99.90;;;;;;4908464;29;21034;-71
2022/11/29 04:09:51;;;;;;;25.77;18.17;;;4.80;99.90;;;;;;4892287;29;20213;-71
2022/11/29 04:12:46;;;;;;;24.67;18.50;;;4.80;99.90;;;;;;4890969;29;20241;-72
2022/11/29 04:15:51;;;;;;;25.00;17.80;;;4.80;99.90;;;;;;4907716;29;20292;-72
2022/11/29 04:18:45;;;;;;;25.03;18.17;;;4.80;99.90;;;;;;4909781;29;20222;-71
2022/11/29 04:21:45;;;;;;;24.37;17.37;;;4.80;99.90;;;;;;4909586;29;20232;-72
2022/11/29 04:24:42;;;;;;;23.63;17.87;;;4.80;99.90;;;;;;4909446;29;20221;-72
2022/11/29 04:27:30;;;;;;;24.27;17.43;;;4.80;99.90;;;;;;4907262;29;20309;-71
2022/11/29 04:30:16;;;;;;;28.50;18.67;;;4.90;99.90;;;;;;4910078;29;20197;-71
2022/11/29 04:33:06;;;;;;;23.30;18.17;;;4.80;99.90;;;;;;4909677;29;20237;-71
2022/11/29 04:35:52;;;;;;;26.17;18.80;;;4.90;99.90;;;;;;4909561;29;20205;-71
2022/11/29 04:38:59;;;;;;;23.20;18.07;;;4.80;99.90;;;;;;4910272;29;20251;-71
2022/11/29 04:41:43;;;;;;;26.57;18.23;;;4.80;99.90;;;;;;4909575;29;20228;-71
2022/11/29 04:44:43;;;;;;;29.07;18.03;;;4.80;99.90;;;;;;4910058;29;20276;-71
2022/11/29 04:47:34;;;;;;;24.17;18.43;;;4.80;99.90;;;;;;4905054;29;20300;-72
2022/11/29 04:50:19;;;;;;;23.90;17.83;;;4.80;99.90;;;;;;4911061;29;20296;-71
2022/11/29 04:53:08;;;;;;;25.57;18.70;;;4.80;99.90;;;;;;4910947;29;20201;-71
2022/11/29 04:55:44;;;;;;;25.33;18.60;;;4.80;99.90;;;;;;4910104;29;20653;-71
2022/11/29 04:58:22;;;;;;;23.33;17.77;;;4.80;99.90;;;;;;4910908;29;20316;-72
2022/11/29 05:01:00;;;;;;;27.20;18.30;;;4.80;99.90;;;;;;4910675;29;20748;-71
2022/11/29 05:03:37;;;;;;;25.77;18.40;;;4.80;99.90;;;;;;4911124;29;20251;-72
2022/11/29 05:06:19;;;;;;;25.23;18.57;;;4.70;99.90;;;;;;4910637;29;20367;-72
2022/11/29 05:08:52;;;;;;;25.37;18.53;;;4.80;99.90;;;;;;4909638;29;20323;-71
2022/11/29 05:11:29;;;;;;;26.17;18.70;;;4.80;99.90;;;;;;4909262;29;20328;-72
2022/11/29 05:14:03;;;;;;;23.73;17.63;;;4.80;99.90;;;;;;4910734;29;20335;-71
2022/11/29 05:16:46;;;;;;;28.43;19.40;;;4.80;99.90;;;;;;4910455;29;20706;-72
2022/11/29 05:19:28;;;;;;;25.33;18.83;;;4.80;99.90;;;;;;4910497;29;20288;-72
2022/11/29 05:22:05;;;;;;;24.30;17.73;;;4.80;99.90;;;;;;4910355;29;20205;-71
2022/11/29 05:24:47;;;;;;;27.03;18.13;;;4.70;99.90;;;;;;4910572;29;20747;-71
2022/11/29 05:27:20;;;;;;;23.23;18.50;;;4.70;99.90;;;;;;4910857;29;20273;-74
2022/11/29 05:29:54;;;;;;;23.37;18.13;;;4.80;99.90;;;;;;4910362;29;20299;-71
2022/11/29 05:32:31;;;;;;;24.43;18.03;;;4.80;99.90;;;;;;4910572;29;20197;-71
2022/11/29 05:35:43;;;;;;;25.40;17.87;;;4.80;99.90;;;;;;4910186;29;20739;-71
2022/11/29 05:38:23;;;;;;;28.57;18.40;;;4.80;99.90;;;;;;4910660;29;20209;-71
2022/11/29 05:41:07;;;;;;;23.50;17.27;;;4.80;99.90;;;;;;4910281;29;20294;-71
2022/11/29 05:43:49;;;;;;;26.03;18.77;;;4.80;99.90;;;;;;4910757;29;20248;-71
2022/11/29 05:46:22;;;;;;;25.20;17.70;;;4.80;99.90;;;;;;4910356;29;20237;-71
2022/11/29 05:48:58;;;;;;;24.93;17.93;;;4.80;99.90;;;;;;4910305;29;20198;-71
2022/11/29 05:51:38;;;;;;;24.20;18.27;;;4.80;99.90;;;;;;4910047;29;20207;-71
2022/11/29 05:54:14;;;;;;;25.37;18.37;;;4.70;99.90;;;;;;4910257;29;20296;-72
2022/11/29 05:56:51;;;;;;;24.13;18.20;;;4.70;99.90;;;;;;4910138;29;20639;-71
2022/11/29 05:59:22;;;;;;;25.33;18.93;;;4.80;99.90;;;;;;4910468;29;20254;-72
2022/11/29 06:01:55;;;;;;;27.13;18.40;;;4.80;99.90;;;;;;4910042;29;20221;-72
2022/11/29 06:04:33;;;;;;;26.20;18.60;;;4.80;99.90;;;;;;4910070;29;20200;-72
2022/11/29 06:07:09;;;;;;;26.10;19.03;;;4.80;99.90;;;;;;4909561;29;20716;-71
2022/11/29 06:09:43;;;;;;;27.10;18.23;;;4.80;99.90;;;;;;4909949;29;20295;-71
2022/11/29 06:12:15;;;;;;;25.87;18.47;;;4.80;99.90;;;;;;4910174;29;20243;-71
2022/11/29 06:15:00;;;;;;;26.00;18.23;;;4.80;99.90;;;;;;4912673;29;20299;-71
2022/11/29 06:17:47;;;;;;;26.13;18.33;;;4.80;99.90;;;;;;4913980;29;20236;-72
2022/11/29 06:20:43;;;;;;;27.33;18.40;;;4.80;99.90;;;;;;4913841;29;20243;-71
2022/11/29 06:23:31;;;;;;;27.27;18.73;;;4.70;99.90;;;;;;4913635;29;20237;-72
2022/11/29 06:26:12;;;;;;;25.03;18.43;;;4.80;99.90;;;;;;4906280;29;20335;-72
2022/11/29 06:28:56;;;;;;;22.43;17.33;;;4.70;99.90;;;;;;4913375;29;20200;-71
2022/11/29 06:31:28;;;;;;;26.50;18.37;;;4.80;99.90;;;;;;4913276;29;20660;-71
2022/11/29 06:34:02;;;;;;;26.30;18.10;;;4.80;99.90;;;;;;4913591;29;20256;-71
2022/11/29 06:36:35;;;;;;;27.30;19.23;;;4.80;99.90;;;;;;4913590;29;20280;-71
2022/11/29 06:39:03;;;;;;;26.70;18.63;;;4.80;99.90;;;;;;4912847;29;20215;-71
2022/11/29 06:41:30;;;;;;;25.40;19.07;;;4.80;99.90;;;;;;4913409;29;20233;-72
2022/11/29 06:43:58;;;;;;;28.10;18.70;;;4.80;99.90;;;;;;4906308;29;20426;-72
2022/11/29 06:46:43;;;;;;;26.77;18.60;;;4.70;99.90;;;;;;4912687;29;20992;-71
2022/11/29 06:49:14;;;;;;;23.77;17.53;;;4.80;99.90;;;;;;4894358;29;20296;-71
2022/11/29 06:51:51;;;;;;;25.10;18.40;;;4.80;99.90;;;;;;4894229;29;20284;-71
2022/11/29 06:54:29;;;;;;;24.03;18.63;;;4.80;99.90;;;;;;4904460;29;20291;-71
2022/11/29 06:57:06;;;;;;;25.80;17.87;;;4.80;99.90;;;;;;4912981;29;20247;-71
2022/11/29 06:59:47;;;;;;;28.03;18.67;;;4.80;99.90;;;;;;4912804;29;20289;-72
2022/11/29 07:02:30;;;;;;;25.83;18.47;;;4.80;99.90;;;;;;4912892;29;20213;-72
2022/11/29 07:05:09;;;;;;;25.57;18.33;;;4.80;99.90;;;;;;4912862;29;20292;-72
2022/11/29 07:07:38;;;;;;;26.37;18.37;;;4.80;99.90;;;;;;4912399;29;20246;-71
2022/11/29 07:10:06;;;;;;;26.63;18.90;;;4.80;99.90;;;;;;4912331;29;20237;-71
2022/11/29 07:12:34;;;;;;;25.97;19.00;;;4.80;99.90;;;;;;4912540;29;20744;-71
2022/11/29 07:15:01;;;;;;;28.93;18.63;;;4.80;99.90;;;;;;4912716;29;20304;-71
2022/11/29 07:17:35;;;;;;;25.53;18.97;;;4.80;99.90;;;;;;4912793;29;20367;-72
2022/11/29 07:20:10;;;;;;;24.47;17.90;;;4.80;99.90;;;;;;4912667;29;20283;-71
2022/11/29 07:22:53;;;;;;;26.13;17.60;;;4.90;99.90;;;;;;4912235;29;20216;-72
2022/11/29 07:25:29;;;;;;;29.27;18.63;;;4.90;99.90;;;;;;4911753;29;20732;-71
2022/11/29 07:28:04;;;;;;;27.03;18.63;;;4.90;99.90;;;;;;4912130;29;20227;-71
2022/11/29 07:30:39;;;;;;;28.27;17.87;;;4.90;99.90;;;;;;4912340;29;20197;-71
2022/11/29 07:33:18;;;;;;;27.10;18.90;;;4.90;99.90;;;;;;4912194;29;20197;-71
2022/11/29 07:35:52;;;;;;;26.40;19.90;;;4.90;99.90;;;;;;4912428;29;20284;-71
2022/11/29 07:38:37;;;;;;;28.67;20.10;;;4.90;99.90;;;;;;4912288;29;20295;-71
2022/11/29 07:41:12;;;;;;;25.90;18.37;;;4.90;99.90;;;;;;4911948;29;20434;-71
2022/11/29 07:43:47;;;;;;;26.93;19.20;;;5.00;99.90;;;;;;4912311;29;20701;-71
2022/11/29 07:46:14;;;;;;;26.00;18.93;;;5.00;99.90;;;;;;4911911;29;20227;-72
2022/11/29 07:48:41;;;;;;;24.80;18.70;;;5.00;99.90;;;;;;4911674;29;20308;-71
2022/11/29 07:51:08;;;;;;;25.53;18.93;;;5.00;99.90;;;;;;4911531;29;20308;-71
2022/11/29 07:53:40;;;;;;;25.23;18.63;;;5.00;99.90;;;;;;4911700;29;20215;-71
2022/11/29 07:56:08;;;;;;;24.47;18.67;;;5.00;99.90;;;;;;4911601;29;20237;-72
2022/11/29 07:58:35;;;;;;;25.13;18.07;;;5.10;99.90;;;;;;4911809;29;20212;-71
2022/11/29 08:01:02;;;;;;;21.03;17.87;;;5.00;99.90;;;;;;4911489;29;20962;-71
2022/11/29 08:03:29;;;;;;;25.60;18.70;;;5.10;99.90;;;;;;4911994;29;20244;-71
2022/11/29 08:05:56;;;;;;;24.03;17.97;;;5.00;99.90;;;;;;4911561;29;20285;-71
2022/11/29 08:08:23;;;;;;;24.87;18.63;;;5.10;99.90;;;;;;4911617;29;20340;-71
2022/11/29 08:10:51;;;;;;;26.70;18.13;;;5.10;99.90;;;;;;4910756;29;20668;-72
2022/11/29 08:13:20;;;;;;;24.47;18.80;;;5.10;99.90;;;;;;4911724;29;20245;-71
2022/11/29 08:15:47;;;;;;;27.77;18.57;;;5.10;99.90;;;;;;4911798;29;20213;-71
2022/11/29 08:18:15;;;;;;;27.17;18.90;;;5.10;99.90;;;;;;4911630;29;20211;-72
2022/11/29 08:20:42;;;;;;;25.97;18.67;;;5.10;99.90;;;;;;4911759;29;20215;-71
2022/11/29 08:23:12;;;;;;;24.47;17.90;;;5.10;99.90;;;;;;4911802;29;20209;-72
2022/11/29 08:25:39;;;;;;;24.60;18.00;;;5.10;99.90;;;;;;4911403;29;20212;-72
2022/11/29 08:28:07;;;;;;;27.37;19.00;;;5.10;99.90;;;;;;4911401;29;20213;-71
2022/11/29 08:30:34;;;;;;;23.33;18.00;;;5.10;99.90;;;;;;4911017;29;20605;-72
2022/11/29 08:33:01;;;;;;;26.70;18.63;;;5.10;99.90;;;;;;4911313;29;20292;-72
2022/11/29 08:35:28;;;;;;;25.17;17.97;;;5.10;99.90;;;;;;4911632;29;20263;-71
2022/11/29 08:37:55;;;;;;;24.83;18.30;;;5.10;99.90;;;;;;4910648;29;20756;-71
2022/11/29 08:40:22;;;;;;;26.20;18.47;;;5.10;99.90;;;;;;4911119;29;20323;-71
2022/11/29 08:42:49;;;;;;;24.70;17.97;;;5.10;99.90;;;;;;4911153;29;20216;-71
2022/11/29 08:45:18;;;;;;;25.07;17.87;;;5.10;99.90;;;;;;4910992;29;20343;-71
2022/11/29 08:47:45;;;;;;;24.87;18.17;;;5.10;99.90;;;;;;4910648;29;20295;-71
2022/11/29 08:50:14;;;;;;;26.83;17.30;;;5.20;99.90;;;;;;4910890;29;20301;-71
2022/11/29 08:55:31;;;;;;;25.13;18.80;;;5.20;99.90;;;;;;4910377;29;20643;-71
2022/11/29 08:58:02;;;;;;;24.40;17.97;;;5.20;99.90;;;;;;4911388;29;20205;-71
2022/11/29 09:00:31;;;;;;;27.10;18.30;;;5.20;99.90;;;;;;4911337;29;20619;-71
2022/11/29 09:03:58;;;;;;;24.77;18.90;;;5.20;99.90;;;;;;4910873;29;20918;-72
2022/11/29 09:05:45;;;;;;;26.20;18.87;;;5.30;99.90;;;;;;4910579;29;20216;-71
2022/11/29 09:08:12;;;;;;;27.30;18.93;;;5.30;99.90;;;;;;4910833;29;20332;-71
2022/11/29 09:10:40;;;;;;;25.20;18.93;;;5.20;99.90;;;;;;4910277;29;20209;-71
2022/11/29 09:13:07;;;;;;;23.97;18.40;;;5.20;99.90;;;;;;4911150;29;20672;-71
2022/11/29 09:15:36;;;;;;;27.47;18.33;;;5.30;99.90;;;;;;4911225;29;20295;-72
2022/11/29 09:18:04;;;;;;;23.47;18.30;;;5.30;99.90;;;;;;4911179;29;20307;-71
2022/11/29 09:20:31;;;;;;;24.33;18.43;;;5.30;99.90;;;;;;4911229;29;20240;-71
2022/11/29 09:22:58;;;;;;;24.10;17.97;;;5.30;99.90;;;;;;4911037;29;20297;-72
2022/11/29 09:25:26;;;;;;;26.10;18.53;;;5.30;99.90;;;;;;4910786;29;20299;-71
2022/11/29 09:27:52;;;;;;;25.73;18.40;;;5.30;99.90;;;;;;4910566;29;20247;-72
2022/11/29 09:30:19;;;;;;;26.77;17.60;;;5.40;99.90;;;;;;4910679;29;20212;-71
2022/11/29 09:32:48;;;;;;;27.80;18.57;;;5.30;99.90;;;;;;4910809;29;20244;-71
2022/11/29 09:35:14;;;;;;;29.53;18.87;;;5.40;99.90;;;;;;4910998;29;20297;-71
2022/11/29 09:37:43;;;;;;;27.70;18.40;;;5.30;99.90;;;;;;4907684;29;20300;-72
2022/11/29 09:40:18;;;;;;;26.33;18.80;;;5.30;99.90;;;;;;4891665;29;20324;-71
2022/11/29 09:42:55;;;;;;;26.60;18.80;;;5.30;99.90;;;;;;4899575;29;20204;-72
2022/11/29 09:45:30;;;;;;;28.13;18.50;;;5.40;99.90;;;;;;4910731;29;20292;-71
2022/11/29 09:48:22;;;;;;;24.60;18.00;;;5.40;99.90;;;;;;4910080;29;20220;-71
2022/11/29 09:50:54;;;;;;;25.17;18.73;;;5.40;99.90;;;;;;4913741;29;20204;-71
2022/11/29 09:53:42;;;;;;;25.77;18.07;;;5.40;99.90;;;;;;4914089;29;20304;-73
2022/11/29 09:56:17;;;;;;;28.77;18.83;;;5.40;99.90;;;;;;4913940;29;20205;-72
2022/11/29 09:58:48;;;;;;;29.17;18.63;;;5.40;99.90;;;;;;4914525;29;20255;-71
2022/11/29 10:01:22;;;;;;;25.87;18.53;;;5.50;99.90;;;;;;4914351;29;20643;-71
2022/11/29 10:03:53;;;;;;;26.80;17.80;;;5.50;99.90;;;;;;4914234;29;20304;-71
2022/11/29 10:06:24;;;;;;;31.57;19.37;;;5.50;99.90;;;;;;4913964;29;20217;-71
2022/11/29 10:08:56;;;;;;;25.93;19.13;;;5.50;99.90;;;;;;4913999;29;20216;-71
2022/11/29 10:11:28;;;;;;;25.60;19.37;;;5.50;99.90;;;;;;4913854;29;20208;-71
2022/11/29 10:13:59;;;;;;;25.90;19.03;;;5.50;99.90;;;;;;4913645;29;20584;-71
2022/11/29 10:16:39;;;;;;;28.87;19.37;;;5.60;99.90;;;;;;4913833;29;20212;-71
2022/11/29 10:19:15;;;;;;;25.60;18.67;;;5.60;99.90;;;;;;4913985;29;20201;-72
2022/11/29 10:21:46;;;;;;;26.97;17.90;;;5.50;99.90;;;;;;4913607;29;20787;-71
2022/11/29 10:24:17;;;;;;;26.87;19.03;;;5.60;99.90;;;;;;4913528;29;20804;-71
2022/11/29 10:26:45;;;;;;;26.07;19.07;;;5.60;99.90;;;;;;4913551;29;20229;-71
2022/11/29 10:29:14;;;;;;;26.67;17.53;;;5.60;99.90;;;;;;4913890;29;20208;-71
2022/11/29 10:31:45;;;;;;;27.40;19.03;;;5.60;99.90;;;;;;4913499;29;20216;-71
2022/11/29 10:34:15;;;;;;;29.27;18.67;;;5.60;99.90;;;;;;4913954;29;20221;-71
2022/11/29 10:36:45;;;;;;;24.07;18.67;;;5.60;99.90;;;;;;4913646;29;20269;-71
2022/11/29 10:39:17;;;;;;;27.20;18.97;;;5.60;99.90;;;;;;4907791;29;20307;-71
2022/11/29 10:41:44;;;;;;;25.47;17.70;;;5.60;99.90;;;;;;4913369;29;20205;-71
2022/11/29 10:44:14;;;;;;;26.33;18.43;;;5.60;99.90;;;;;;4913443;29;20209;-71
2022/11/29 10:46:41;;;;;;;26.60;18.13;;;5.70;99.90;;;;;;4912825;29;20323;-71
2022/11/29 10:49:16;;;;;;;26.33;18.13;;;5.70;99.90;;;;;;4912545;29;20223;-71
2022/11/29 10:51:43;;;;;;;25.47;18.10;;;5.70;99.90;;;;;;4912992;29;20296;-71
2022/11/29 10:54:27;;;;;;;22.97;18.33;;;5.70;99.90;;;;;;4913063;29;20270;-71
2022/11/29 10:56:56;;;;;;;23.83;18.00;;;5.70;99.90;;;;;;4894521;29;20248;-71
2022/11/29 10:59:25;;;;;;;25.30;18.70;;;5.70;99.90;;;;;;4904056;29;20583;-71
2022/11/29 11:01:53;;;;;;;24.87;18.83;;;5.70;99.90;;;;;;4913027;29;20213;-71
2022/11/29 11:04:28;;;;;;;25.50;17.87;;;5.70;99.90;;;;;;4913304;29;20248;-71
2022/11/29 11:06:56;;;;;;;25.30;17.90;;;5.70;99.90;;;;;;4913135;29;20354;-72
2022/11/29 11:09:31;;;;;;;24.10;17.80;;;5.70;99.90;;;;;;4912823;29;20251;-71
2022/11/29 11:12:00;;;;;;;28.60;19.60;;;5.70;99.90;;;;;;4913027;29;20192;-72
2022/11/29 11:14:29;;;;;;;26.07;18.87;;;5.70;99.90;;;;;;4913280;29;20215;-71
2022/11/29 11:16:56;;;;;;;26.07;18.70;;;5.70;99.90;;;;;;4912917;29;20208;-71
2022/11/29 11:19:29;;;;;;;27.23;19.03;;;5.70;99.90;;;;;;4913006;29;20299;-71
2022/11/29 11:21:57;;;;;;;25.10;19.50;;;5.70;99.90;;;;;;4912646;29;20300;-71
2022/11/29 11:24:27;;;;;;;26.23;18.10;;;5.70;99.90;;;;;;4912399;29;20762;-71
2022/11/29 11:26:54;;;;;;;26.73;19.13;;;5.70;99.90;;;;;;4912669;29;20581;-71
2022/11/29 11:29:25;;;;;;;24.87;18.70;;;5.70;99.90;;;;;;4912419;29;20273;-71
2022/11/29 11:31:55;;;;;;;28.13;19.10;;;5.70;99.90;;;;;;4912469;29;20244;-71
2022/11/29 11:34:30;;;;;;;26.70;18.13;;;5.70;99.90;;;;;;4912550;29;20288;-71
2022/11/29 11:37:18;;;;;;;24.33;18.93;;;5.80;99.90;;;;;;4912472;29;20205;-71
2022/11/29 11:39:47;;;;;;;24.53;18.83;;;5.80;99.90;;;;;;4893311;29;20241;-71
2022/11/29 11:45:24;;;;;;;23.07;17.87;;;5.80;99.90;;;;;;4899003;29;20618;-72
2022/11/29 11:47:53;;;;;;;26.50;19.30;;;5.80;99.90;;;;;;4911750;29;20271;-71
2022/11/29 11:50:29;;;;;;;24.53;18.33;;;5.80;99.90;;;;;;4911936;29;20911;-71
2022/11/29 11:52:58;;;;;;;25.87;18.33;;;5.80;99.90;;;;;;4911356;29;20232;-71
2022/11/29 11:55:32;;;;;;;25.83;19.20;;;5.80;99.90;;;;;;4911875;29;20252;-71
2022/11/29 11:58:05;;;;;;;23.50;17.80;;;5.80;99.90;;;;;;4912133;29;20232;-71
2022/11/29 12:00:41;;;;;;;26.23;19.13;;;5.90;99.90;;;;;;4912137;29;20231;-72
2022/11/29 12:03:23;;;;;;;25.43;18.20;;;5.80;99.90;;;;;;4911610;29;20724;-71
2022/11/29 12:05:54;;;;;;;29.73;19.17;;;5.90;99.90;;;;;;4911867;29;20249;-72
2022/11/29 12:08:22;;;;;;;29.33;19.33;;;5.80;99.90;;;;;;4911667;29;20746;-71
2022/11/29 12:10:52;;;;;;;26.67;19.17;;;5.80;99.90;;;;;;4910724;29;20683;-71
2022/11/29 12:13:24;;;;;;;27.80;19.10;;;5.80;99.90;;;;;;4911777;29;20197;-71
2022/11/29 12:15:53;;;;;;;26.37;19.60;;;5.80;99.90;;;;;;4911319;29;20296;-72
2022/11/29 12:18:28;;;;;;;26.57;19.17;;;5.90;99.90;;;;;;4911769;29;20300;-71
2022/11/29 12:21:01;;;;;;;27.30;19.17;;;5.90;99.90;;;;;;4911132;29;20675;-71
2022/11/29 12:23:40;;;;;;;28.30;19.60;;;5.80;99.90;;;;;;4911132;29;20197;-72
2022/11/29 12:26:14;;;;;;;25.13;18.70;;;5.90;99.90;;;;;;4911403;29;20295;-71
2022/11/29 12:28:43;;;;;;;27.30;19.20;;;5.90;99.90;;;;;;4911473;29;20428;-71
2022/11/29 12:31:21;;;;;;;31.73;19.07;;;5.90;99.90;;;;;;4911272;29;20295;-71
2022/11/29 12:33:52;;;;;;;26.47;18.23;;;5.90;99.90;;;;;;4911617;29;20681;-72
2022/11/29 12:36:31;;;;;;;26.80;18.93;;;5.80;99.90;;;;;;4911377;29;20668;-71
2022/11/29 12:39:24;;;;;;;26.47;18.40;;;5.80;99.90;;;;;;4910956;29;20299;-71
2022/11/29 12:41:56;;;;;;;28.60;20.10;;;5.80;99.90;;;;;;4892613;29;20200;-71
2022/11/29 12:44:32;;;;;;;28.50;19.30;;;5.90;99.90;;;;;;4892512;29;20555;-71
2022/11/29 12:47:08;;;;;;;28.87;18.77;;;5.80;99.90;;;;;;4909772;29;20208;-71
2022/11/29 12:49:48;;;;;;;28.13;19.60;;;5.80;99.90;;;;;;4892550;29;20208;-72
2022/11/29 12:52:24;;;;;;;27.93;19.23;;;5.80;99.90;;;;;;4905264;29;20295;-71
2022/11/29 12:55:01;;;;;;;27.33;18.77;;;5.90;99.90;;;;;;4910918;29;20201;-71
2022/11/29 12:57:36;;;;;;;27.23;19.00;;;5.90;99.90;;;;;;4911299;29;20292;-71
2022/11/29 13:00:08;;;;;;;28.23;19.37;;;5.80;99.90;;;;;;4911389;29;20208;-72
2022/11/29 13:02:47;;;;;;;28.30;19.13;;;5.90;99.90;;;;;;4911307;29;20617;-71
2022/11/29 13:05:28;;;;;;;28.70;19.10;;;5.90;99.90;;;;;;4911782;29;20224;-71
2022/11/29 13:08:16;;;;;;;25.93;19.30;;;5.90;99.90;;;;;;4910568;29;20271;-71
2022/11/29 13:10:59;;;;;;;27.80;19.47;;;5.90;99.90;;;;;;4910777;29;20197;-71
2022/11/29 13:13:37;;;;;;;25.33;19.37;;;5.90;99.90;;;;;;4911285;29;20676;-71
2022/11/29 13:16:09;;;;;;;29.40;19.67;;;5.80;99.90;;;;;;4911531;29;20555;-72
2022/11/29 13:18:43;;;;;;;30.33;20.13;;;5.80;99.90;;;;;;4911312;29;20204;-71